EW0890 Weather Reports


Display with metric or nautical units.
time (UTC)temp
F
wind
direction
speed
MPH
gust
MPH
rain 1hr
in
rain 24hr
in
rain mn
in
humidity
%
barometer
mb
20240227103053 56 181 12.0 15.0 0.00 0.00 0.00 94 996.7
20240227101601 56 188 13.0 18.0 0.00 0.00 0.00 93 996.7
20240227100100 56 197 13.0 18.0 0.00 0.00 0.00 94 996.9
20240227094557 56 210 15.0 23.0 0.00 0.00 0.00 93 997.2
20240227093055 57 200 16.0 21.0 0.00 0.00 0.00 93 997.2
20240227091559 57 214 14.0 19.0 0.00 0.00 0.00 93 997.3
20240227090100 57 207 15.0 20.0 0.00 0.00 0.00 92 997.5
20240227084559 57 220 15.0 20.0 0.00 0.00 0.00 92 997.6
20240227083104 57 205 16.0 24.0 0.00 0.00 0.00 92 997.7
20240227081608 57 212 16.0 22.0 0.00 0.00 0.00 92 997.9
20240227080054 57 207 15.0 21.0 0.00 0.00 0.00 92 998.0
20240227074554 57 210 16.0 23.0 0.00 0.00 0.00 91 998.0
20240227073056 57 207 17.0 22.0 0.00 0.00 0.00 91 998.1
20240227071600 58 205 19.0 26.0 0.00 0.00 0.00 90 998.1
20240227070059 58 207 17.0 24.0 0.00 0.00 0.00 89 998.0
20240227064555 59 198 17.0 25.0 0.00 0.00 0.00 88 998.1
20240227063054 59 181 18.0 25.0 0.00 0.00 0.00 88 998.1
20240227061558 59 184 16.0 22.0 0.00 0.00 0.00 88 998.3
20240227060100 59 200 16.0 24.0 0.00 0.00 0.00 87 998.6
20240227054559 59 201 15.0 22.0 0.00 0.00 0.00 87 998.8
20240227053106 59 205 17.0 25.0 0.00 0.00 0.00 87 999.1
20240227051558 59 193 15.0 21.0 0.00 0.00 0.00 86 999.2
20240227050101 59 158 13.0 20.0 0.00 0.00 0.00 86 999.3
20240227044600 59 186 15.0 23.0 0.00 0.00 0.00 85 999.5
20240227043054 59 193 15.0 23.0 0.00 0.00 0.00 84 999.5
20240227041557 60 199 17.0 26.0 0.00 0.00 0.00 82 999.6
20240227040058 60 208 18.0 27.0 0.00 0.00 0.00 81 999.7
20240227034606 60 187 20.0 26.0 0.00 0.00 0.00 80 999.8
20240227033105 61 201 18.0 27.0 0.00 0.00 0.00 79 999.9
20240227031552 61 184 18.0 24.0 0.00 0.00 0.00 79 1000.1
20240227030111 61 203 18.0 26.0 0.00 0.00 0.00 80 1000.0
20240227024555 60 193 14.0 24.0 0.00 0.00 0.00 76 1000.1
20240227023051 60 167 17.0 22.0 0.00 0.00 0.00 71 999.8
20240227021555 60 198 12.0 17.0 0.00 0.00 0.00 68 1000.1
20240227020057 60 170 11.0 18.0 0.00 0.00 0.00 66 1000.1
20240227014552 60 163 13.0 18.0 0.00 0.00 0.00 64 1000.0
20240227013107 61 175 12.0 18.0 0.00 0.00 0.00 63 999.8
20240227011551 60 177 9.0 15.0 0.00 0.00 0.00 63 999.8
20240227010058 61 154 13.0 17.0 0.00 0.00 0.00 60 999.9
20240227004556 62 149 13.0 19.0 0.00 0.00 0.00 56 999.9
20240227003058 62 162 12.0 16.0 0.00 0.00 0.00 54 1000.0
20240227001601 62 156 11.0 15.0 0.00 0.00 0.00 51 999.9
20240227000100 63 167 12.0 19.0 0.00 0.00 0.00 47 1000.2
20240226234601 63 154 10.0 15.0 0.00 0.00 0.00 45 1000.4
20240226233104 64 164 11.0 16.0 0.00 0.00 0.00 43 1000.7
20240226231552 67 151 12.0 18.0 0.00 0.00 0.00 39 1000.7
20240226230059 68 173 15.0 22.0 0.00 0.00 0.00 36 1000.7
20240226224554 68 192 17.0 23.0 0.00 0.00 0.00 34 1000.7
20240226223055 69 167 16.0 25.0 0.00 0.00 0.00 34 1000.9
20240226221551 70 188 17.0 26.0 0.00 0.00 0.00 32 1001.1
20240226220050 72 197 17.0 25.0 0.00 0.00 0.00 28 1001.2
20240226214555 73 171 19.0 25.0 0.00 0.00 0.00 26 1001.3
20240226213055 73 173 21.0 27.0 0.00 0.00 0.00 25 1001.6
20240226211552 74 181 19.0 27.0 0.00 0.00 0.00 24 1002.1
20240226210055 74 200 16.0 26.0 0.00 0.00 0.00 24 1002.3
20240226204616 74 204 17.0 24.0 0.00 0.00 0.00 25 1002.7
20240226203106 73 195 15.0 22.0 0.00 0.00 0.00 26 1003.1
20240226201604 73 176 16.0 22.0 0.00 0.00 0.00 26 1003.5
20240226200107 73 165 13.0 19.0 0.00 0.00 0.00 28 1003.9
20240226194550 72 172 14.0 19.0 0.00 0.00 0.00 27 1004.3
20240226193051 71 211 14.0 20.0 0.00 0.00 0.00 30 1004.7
20240226191555 71 181 14.0 19.0 0.00 0.00 0.00 33 1005.1
20240226190050 70 160 15.0 20.0 0.00 0.00 0.00 34 1005.5
20240226184605 69 191 16.0 22.0 0.00 0.00 0.00 37 1005.7
20240226183054 68 162 14.0 19.0 0.00 0.00 0.00 41 1006.0
20240226181606 68 129 15.0 19.0 0.00 0.00 0.00 43 1006.4
20240226180105 67 168 13.0 18.0 0.00 0.00 0.00 43 1006.7
20240226174556 66 147 10.0 16.0 0.00 0.00 0.00 46 1007.0
20240226173051 66 178 10.0 13.0 0.00 0.00 0.00 46 1007.3
20240226171601 64 149 9.0 12.0 0.00 0.00 0.00 49 1007.4
20240226170055 63 174 9.0 13.0 0.00 0.00 0.00 52 1007.9
20240226164619 61 120 7.0 10.0 0.00 0.00 0.00 55 1007.8
20240226163057 60 137 6.0 9.0 0.00 0.00 0.00 59 1008.2
20240226161608 59 124 6.0 10.0 0.00 0.00 0.00 61 1008.5
20240226160103 58 195 7.0 11.0 0.00 0.00 0.00 63 1008.6
20240226154556 56 177 8.0 12.0 0.00 0.00 0.00 66 1008.9
20240226153107 54 168 8.0 11.0 0.00 0.00 0.00 72 1008.9
20240226151558 53 188 8.0 11.0 0.00 0.00 0.00 73 1008.8
20240226150052 52 142 4.0 8.0 0.00 0.00 0.00 77 1008.6
20240226144610 50 156 7.0 9.0 0.00 0.00 0.00 80 1008.7
20240226143054 48 142 5.0 7.0 0.00 0.00 0.00 83 1008.7
20240226141558 46 113 4.0 8.0 0.00 0.00 0.00 84 1008.7
20240226140057 44 157 5.0 6.0 0.00 0.00 0.00 87 1008.8
20240226134557 42 150 4.0 7.0 0.00 0.00 0.00 88 1008.7
20240226133052 40 120 4.0 8.0 0.00 0.00 0.00 90 1008.5
20240226131557 39 110 4.0 8.0 0.00 0.00 0.00 89 1008.4
20240226130055 39 129 2.0 6.0 0.00 0.00 0.00 90 1008.2
20240226124551 37 139 5.0 8.0 0.00 0.00 0.00 91 1008.1
20240226123057 37 118 6.0 10.0 0.00 0.00 0.00 89 1008.2
20240226121559 38 118 5.0 9.0 0.00 0.00 0.00 89 1008.2
20240226120055 40 119 4.0 9.0 0.00 0.00 0.00 86 1008.3
20240226114557 40 158 5.0 9.0 0.00 0.00 0.00 86 1008.5
20240226113100 39 143 3.0 6.0 0.00 0.00 0.00 88 1008.6
20240226111636 39 186 4.0 8.0 0.00 0.00 0.00 89 1008.6
20240226110107 37 152 3.0 5.0 0.00 0.00 0.00 90 1008.8
20240226104554 37 0 0.0 2.0 0.00 0.00 0.00 90 1008.8